sensor_id;sensor_type;location;lat;lon;timestamp;temperature;humidity
14682;DHT22;7429;52.498;13.480;2022-08-30T00:00:43;17.00;99.90
14682;DHT22;7429;52.498;13.480;2022-08-30T00:04:15;17.00;99.90
14682;DHT22;7429;52.498;13.480;2022-08-30T00:07:18;16.90;99.90
14682;DHT22;7429;52.498;13.480;2022-08-30T00:10:21;16.90;99.90
14682;DHT22;7429;52.498;13.480;2022-08-30T00:13:25;16.90;99.90
14682;DHT22;7429;52.498;13.480;2022-08-30T00:16:29;16.90;99.90
14682;DHT22;7429;52.498;13.480;2022-08-30T00:19:32;16.80;99.90
14682;DHT22;7429;52.498;13.480;2022-08-30T00:22:37;16.80;99.90
14682;DHT22;7429;52.498;13.480;2022-08-30T00:25:41;16.70;99.90
14682;DHT22;7429;52.498;13.480;2022-08-30T00:28:45;16.70;99.90
14682;DHT22;7429;52.498;13.480;2022-08-30T00:31:49;16.70;99.90
14682;DHT22;7429;52.498;13.480;2022-08-30T00:34:54;16.70;99.90
14682;DHT22;7429;52.498;13.480;2022-08-30T00:37:57;16.70;99.90
14682;DHT22;7429;52.498;13.480;2022-08-30T00:41:00;16.70;99.90
14682;DHT22;7429;52.498;13.480;2022-08-30T00:44:04;16.70;99.90
14682;DHT22;7429;52.498;13.480;2022-08-30T00:47:10;16.70;99.90
14682;DHT22;7429;52.498;13.480;2022-08-30T00:50:15;16.70;99.90
14682;DHT22;7429;52.498;13.480;2022-08-30T00:53:24;16.70;99.90
14682;DHT22;7429;52.498;13.480;2022-08-30T00:56:29;16.60;99.90
14682;DHT22;7429;52.498;13.480;2022-08-30T00:59:33;16.70;99.90
14682;DHT22;7429;52.498;13.480;2022-08-30T01:02:38;16.60;99.90
14682;DHT22;7429;52.498;13.480;2022-08-30T01:05:42;16.70;99.90
14682;DHT22;7429;52.498;13.480;2022-08-30T01:08:46;16.60;99.90
14682;DHT22;7429;52.498;13.480;2022-08-30T01:11:50;16.60;99.90
14682;DHT22;7429;52.498;13.480;2022-08-30T01:14:54;16.60;99.90
14682;DHT22;7429;52.498;13.480;2022-08-30T01:18:17;16.60;99.90
14682;DHT22;7429;52.498;13.480;2022-08-30T01:21:26;16.60;99.90
14682;DHT22;7429;52.498;13.480;2022-08-30T01:24:34;16.60;99.90
14682;DHT22;7429;52.498;13.480;2022-08-30T01:27:42;16.60;99.90
14682;DHT22;7429;52.498;13.480;2022-08-30T01:30:46;16.60;99.90
14682;DHT22;7429;52.498;13.480;2022-08-30T01:33:50;16.60;99.90
14682;DHT22;7429;52.498;13.480;2022-08-30T01:36:53;16.60;99.90
14682;DHT22;7429;52.498;13.480;2022-08-30T01:39:57;16.50;99.90
14682;DHT22;7429;52.498;13.480;2022-08-30T01:43:01;16.50;99.90
14682;DHT22;7429;52.498;13.480;2022-08-30T01:46:05;16.50;99.90
14682;DHT22;7429;52.498;13.480;2022-08-30T01:49:12;16.40;99.90
14682;DHT22;7429;52.498;13.480;2022-08-30T01:52:16;16.40;99.90
14682;DHT22;7429;52.498;13.480;2022-08-30T01:55:21;16.40;99.90
14682;DHT22;7429;52.498;13.480;2022-08-30T01:58:24;16.40;99.90
14682;DHT22;7429;52.498;13.480;2022-08-30T02:01:30;16.40;99.90
14682;DHT22;7429;52.498;13.480;2022-08-30T02:04:36;16.30;99.90
14682;DHT22;7429;52.498;13.480;2022-08-30T02:07:39;16.30;99.90
14682;DHT22;7429;52.498;13.480;2022-08-30T02:10:43;16.40;99.90
14682;DHT22;7429;52.498;13.480;2022-08-30T02:13:46;16.30;99.90
14682;DHT22;7429;52.498;13.480;2022-08-30T02:16:50;16.30;99.90
14682;DHT22;7429;52.498;13.480;2022-08-30T02:19:53;16.30;99.90
14682;DHT22;7429;52.498;13.480;2022-08-30T02:22:56;16.30;99.90
14682;DHT22;7429;52.498;13.480;2022-08-30T02:26:04;16.20;99.90
14682;DHT22;7429;52.498;13.480;2022-08-30T02:29:07;16.20;99.90
14682;DHT22;7429;52.498;13.480;2022-08-30T02:32:11;16.10;99.90
14682;DHT22;7429;52.498;13.480;2022-08-30T02:35:14;16.10;99.90
14682;DHT22;7429;52.498;13.480;2022-08-30T02:38:17;16.10;99.90
14682;DHT22;7429;52.498;13.480;2022-08-30T02:41:22;16.10;99.90
14682;DHT22;7429;52.498;13.480;2022-08-30T02:44:25;16.10;99.90
14682;DHT22;7429;52.498;13.480;2022-08-30T02:47:28;16.00;99.90
14682;DHT22;7429;52.498;13.480;2022-08-30T02:50:32;16.10;99.90
14682;DHT22;7429;52.498;13.480;2022-08-30T02:53:35;16.10;99.90
14682;DHT22;7429;52.498;13.480;2022-08-30T02:56:40;16.10;99.90
14682;DHT22;7429;52.498;13.480;2022-08-30T02:59:44;16.20;99.90
14682;DHT22;7429;52.498;13.480;2022-08-30T03:02:48;16.20;99.90
14682;DHT22;7429;52.498;13.480;2022-08-30T03:05:51;16.20;99.90
14682;DHT22;7429;52.498;13.480;2022-08-30T03:08:54;16.10;99.90
14682;DHT22;7429;52.498;13.480;2022-08-30T03:11:58;16.10;99.90
14682;DHT22;7429;52.498;13.480;2022-08-30T03:15:02;16.10;99.90
14682;DHT22;7429;52.498;13.480;2022-08-30T03:18:07;16.00;99.90
14682;DHT22;7429;52.498;13.480;2022-08-30T03:21:12;15.90;99.90
14682;DHT22;7429;52.498;13.480;2022-08-30T03:24:16;15.90;99.90
14682;DHT22;7429;52.498;13.480;2022-08-30T03:27:20;15.90;99.90
14682;DHT22;7429;52.498;13.480;2022-08-30T03:30:23;15.90;99.90
14682;DHT22;7429;52.498;13.480;2022-08-30T03:33:27;15.80;99.90
14682;DHT22;7429;52.498;13.480;2022-08-30T03:36:30;15.80;99.90
14682;DHT22;7429;52.498;13.480;2022-08-30T03:39:33;15.80;99.90
14682;DHT22;7429;52.498;13.480;2022-08-30T03:42:38;15.70;99.90
14682;DHT22;7429;52.498;13.480;2022-08-30T03:45:44;15.70;99.90
14682;DHT22;7429;52.498;13.480;2022-08-30T03:48:47;15.70;99.90
14682;DHT22;7429;52.498;13.480;2022-08-30T03:51:51;15.70;99.90
14682;DHT22;7429;52.498;13.480;2022-08-30T03:54:54;15.70;99.90
14682;DHT22;7429;52.498;13.480;2022-08-30T03:57:58;15.70;99.90
14682;DHT22;7429;52.498;13.480;2022-08-30T04:01:01;15.70;99.90
14682;DHT22;7429;52.498;13.480;2022-08-30T04:04:04;15.80;99.90
14682;DHT22;7429;52.498;13.480;2022-08-30T04:07:07;15.80;99.90
14682;DHT22;7429;52.498;13.480;2022-08-30T04:10:10;15.70;99.90
14682;DHT22;7429;52.498;13.480;2022-08-30T04:13:15;15.70;99.90
14682;DHT22;7429;52.498;13.480;2022-08-30T04:16:19;15.70;99.90
14682;DHT22;7429;52.498;13.480;2022-08-30T04:19:22;15.70;99.90
14682;DHT22;7429;52.498;13.480;2022-08-30T04:22:26;15.70;99.90
14682;DHT22;7429;52.498;13.480;2022-08-30T04:25:29;15.70;99.90
14682;DHT22;7429;52.498;13.480;2022-08-30T04:28:33;15.70;99.90
14682;DHT22;7429;52.498;13.480;2022-08-30T04:31:37;15.70;99.90
14682;DHT22;7429;52.498;13.480;2022-08-30T04:34:40;15.70;99.90
14682;DHT22;7429;52.498;13.480;2022-08-30T04:37:44;15.70;99.90
14682;DHT22;7429;52.498;13.480;2022-08-30T04:40:47;15.70;99.90
14682;DHT22;7429;52.498;13.480;2022-08-30T04:43:52;15.70;99.90
14682;DHT22;7429;52.498;13.480;2022-08-30T04:46:55;15.70;99.90
14682;DHT22;7429;52.498;13.480;2022-08-30T04:49:58;15.70;99.90
14682;DHT22;7429;52.498;13.480;2022-08-30T04:53:01;15.70;99.90
14682;DHT22;7429;52.498;13.480;2022-08-30T04:56:07;15.70;99.90
14682;DHT22;7429;52.498;13.480;2022-08-30T04:59:13;15.70;99.90
14682;DHT22;7429;52.498;13.480;2022-08-30T05:02:16;15.70;99.90
14682;DHT22;7429;52.498;13.480;2022-08-30T05:05:20;15.70;99.90
14682;DHT22;7429;52.498;13.480;2022-08-30T05:08:41;15.80;99.90
14682;DHT22;7429;52.498;13.480;2022-08-30T05:11:47;15.80;99.90
14682;DHT22;7429;52.498;13.480;2022-08-30T05:14:52;15.80;99.90
14682;DHT22;7429;52.498;13.480;2022-08-30T05:17:55;15.90;99.90
14682;DHT22;7429;52.498;13.480;2022-08-30T05:21:03;15.80;99.90
14682;DHT22;7429;52.498;13.480;2022-08-30T05:24:07;15.90;99.90
14682;DHT22;7429;52.498;13.480;2022-08-30T05:27:10;15.90;99.90
14682;DHT22;7429;52.498;13.480;2022-08-30T05:30:16;16.00;99.90
14682;DHT22;7429;52.498;13.480;2022-08-30T05:33:19;16.00;99.90
14682;DHT22;7429;52.498;13.480;2022-08-30T05:36:24;16.10;99.90
14682;DHT22;7429;52.498;13.480;2022-08-30T05:39:29;16.00;99.90
14682;DHT22;7429;52.498;13.480;2022-08-30T05:42:51;16.10;99.90
14682;DHT22;7429;52.498;13.480;2022-08-30T05:45:58;16.20;99.90
14682;DHT22;7429;52.498;13.480;2022-08-30T05:49:04;16.20;99.90
14682;DHT22;7429;52.498;13.480;2022-08-30T05:52:08;16.20;99.90
14682;DHT22;7429;52.498;13.480;2022-08-30T05:55:13;16.30;99.90
14682;DHT22;7429;52.498;13.480;2022-08-30T05:58:16;16.40;99.90
14682;DHT22;7429;52.498;13.480;2022-08-30T06:01:24;16.40;99.90
14682;DHT22;7429;52.498;13.480;2022-08-30T06:04:28;16.40;99.90
14682;DHT22;7429;52.498;13.480;2022-08-30T06:07:31;16.50;99.90
14682;DHT22;7429;52.498;13.480;2022-08-30T06:10:34;16.50;99.90
14682;DHT22;7429;52.498;13.480;2022-08-30T06:13:38;16.50;99.90
14682;DHT22;7429;52.498;13.480;2022-08-30T06:16:42;16.50;99.90
14682;DHT22;7429;52.498;13.480;2022-08-30T06:19:46;16.60;99.90
14682;DHT22;7429;52.498;13.480;2022-08-30T06:22:49;16.60;99.90
14682;DHT22;7429;52.498;13.480;2022-08-30T06:25:52;16.80;99.90
14682;DHT22;7429;52.498;13.480;2022-08-30T06:28:56;16.80;99.90
14682;DHT22;7429;52.498;13.480;2022-08-30T06:32:01;16.90;99.90
14682;DHT22;7429;52.498;13.480;2022-08-30T06:35:06;17.00;99.90
14682;DHT22;7429;52.498;13.480;2022-08-30T06:38:09;17.10;99.90
14682;DHT22;7429;52.498;13.480;2022-08-30T06:41:15;17.20;99.90
14682;DHT22;7429;52.498;13.480;2022-08-30T06:44:20;17.30;99.90
14682;DHT22;7429;52.498;13.480;2022-08-30T06:47:25;17.30;99.90
14682;DHT22;7429;52.498;13.480;2022-08-30T06:50:28;17.40;99.90
14682;DHT22;7429;52.498;13.480;2022-08-30T06:53:33;17.40;99.90
14682;DHT22;7429;52.498;13.480;2022-08-30T06:56:37;17.50;99.90
14682;DHT22;7429;52.498;13.480;2022-08-30T06:59:43;17.50;99.90
14682;DHT22;7429;52.498;13.480;2022-08-30T07:02:47;17.50;99.90
14682;DHT22;7429;52.498;13.480;2022-08-30T07:05:50;17.60;99.90
14682;DHT22;7429;52.498;13.480;2022-08-30T07:08:54;17.50;99.90
14682;DHT22;7429;52.498;13.480;2022-08-30T07:12:00;17.50;99.90
14682;DHT22;7429;52.498;13.480;2022-08-30T07:15:04;17.50;99.90
14682;DHT22;7429;52.498;13.480;2022-08-30T07:18:10;17.60;99.90
14682;DHT22;7429;52.498;13.480;2022-08-30T07:21:33;17.60;99.90
14682;DHT22;7429;52.498;13.480;2022-08-30T07:24:37;17.60;99.90
14682;DHT22;7429;52.498;13.480;2022-08-30T07:27:41;17.70;99.90
14682;DHT22;7429;52.498;13.480;2022-08-30T07:30:47;17.80;99.90
14682;DHT22;7429;52.498;13.480;2022-08-30T07:33:51;17.90;99.90
14682;DHT22;7429;52.498;13.480;2022-08-30T07:36:54;17.90;99.90
14682;DHT22;7429;52.498;13.480;2022-08-30T07:39:58;18.00;99.90
14682;DHT22;7429;52.498;13.480;2022-08-30T07:43:01;17.90;99.90
14682;DHT22;7429;52.498;13.480;2022-08-30T07:46:06;18.00;99.90
14682;DHT22;7429;52.498;13.480;2022-08-30T07:49:12;18.00;99.90
14682;DHT22;7429;52.498;13.480;2022-08-30T07:52:15;18.00;99.90
14682;DHT22;7429;52.498;13.480;2022-08-30T07:55:18;18.00;99.90
14682;DHT22;7429;52.498;13.480;2022-08-30T07:58:21;18.10;99.90
14682;DHT22;7429;52.498;13.480;2022-08-30T08:01:24;18.10;99.90
14682;DHT22;7429;52.498;13.480;2022-08-30T08:04:29;18.20;99.90
14682;DHT22;7429;52.498;13.480;2022-08-30T08:07:32;18.30;99.90
14682;DHT22;7429;52.498;13.480;2022-08-30T08:10:36;18.30;99.90
14682;DHT22;7429;52.498;13.480;2022-08-30T08:13:41;18.30;99.90
14682;DHT22;7429;52.498;13.480;2022-08-30T08:16:55;18.30;99.90
14682;DHT22;7429;52.498;13.480;2022-08-30T08:19:59;18.30;99.90
14682;DHT22;7429;52.498;13.480;2022-08-30T08:23:03;18.30;99.90
14682;DHT22;7429;52.498;13.480;2022-08-30T08:26:06;18.30;99.90
14682;DHT22;7429;52.498;13.480;2022-08-30T08:29:09;18.40;99.90
14682;DHT22;7429;52.498;13.480;2022-08-30T08:32:12;18.50;99.90
14682;DHT22;7429;52.498;13.480;2022-08-30T08:35:17;18.60;99.90
14682;DHT22;7429;52.498;13.480;2022-08-30T08:38:20;18.60;99.90
14682;DHT22;7429;52.498;13.480;2022-08-30T08:41:32;18.70;99.90
14682;DHT22;7429;52.498;13.480;2022-08-30T08:44:51;18.80;99.90
14682;DHT22;7429;52.498;13.480;2022-08-30T08:48:00;18.90;99.90
14682;DHT22;7429;52.498;13.480;2022-08-30T08:51:10;19.00;99.90
14682;DHT22;7429;52.498;13.480;2022-08-30T08:54:35;19.00;99.90
14682;DHT22;7429;52.498;13.480;2022-08-30T08:57:41;19.00;99.90
14682;DHT22;7429;52.498;13.480;2022-08-30T09:00:44;19.00;99.90
14682;DHT22;7429;52.498;13.480;2022-08-30T09:03:48;19.10;99.90
14682;DHT22;7429;52.498;13.480;2022-08-30T09:06:56;19.30;99.90
14682;DHT22;7429;52.498;13.480;2022-08-30T09:10:01;19.50;99.90
14682;DHT22;7429;52.498;13.480;2022-08-30T09:13:05;19.60;99.90
14682;DHT22;7429;52.498;13.480;2022-08-30T09:16:44;19.90;99.90
14682;DHT22;7429;52.498;13.480;2022-08-30T09:19:57;20.10;99.90
14682;DHT22;7429;52.498;13.480;2022-08-30T09:23:23;20.30;99.90
14682;DHT22;7429;52.498;13.480;2022-08-30T09:26:30;20.50;99.90
14682;DHT22;7429;52.498;13.480;2022-08-30T09:29:34;20.60;99.90
14682;DHT22;7429;52.498;13.480;2022-08-30T09:32:40;20.60;99.90
14682;DHT22;7429;52.498;13.480;2022-08-30T09:35:47;20.50;99.90
14682;DHT22;7429;52.498;13.480;2022-08-30T09:39:02;20.40;99.90
14682;DHT22;7429;52.498;13.480;2022-08-30T09:42:13;20.30;99.90
14682;DHT22;7429;52.498;13.480;2022-08-30T09:45:28;20.20;99.90
14682;DHT22;7429;52.498;13.480;2022-08-30T09:48:35;20.10;99.90
14682;DHT22;7429;52.498;13.480;2022-08-30T09:51:49;19.90;99.90
14682;DHT22;7429;52.498;13.480;2022-08-30T09:55:09;19.80;99.90
14682;DHT22;7429;52.498;13.480;2022-08-30T09:58:31;19.70;99.90
14682;DHT22;7429;52.498;13.480;2022-08-30T10:01:42;19.70;99.90
14682;DHT22;7429;52.498;13.480;2022-08-30T10:04:56;19.80;99.90
14682;DHT22;7429;52.498;13.480;2022-08-30T10:08:10;19.80;99.90
14682;DHT22;7429;52.498;13.480;2022-08-30T10:11:25;19.90;99.90
14682;DHT22;7429;52.498;13.480;2022-08-30T10:14:49;20.00;99.90
14682;DHT22;7429;52.498;13.480;2022-08-30T10:17:59;20.00;99.90
14682;DHT22;7429;52.498;13.480;2022-08-30T10:21:14;20.20;99.90
14682;DHT22;7429;52.498;13.480;2022-08-30T10:24:24;20.30;99.90
14682;DHT22;7429;52.498;13.480;2022-08-30T10:27:42;20.40;99.90
14682;DHT22;7429;52.498;13.480;2022-08-30T10:31:06;20.50;99.90
14682;DHT22;7429;52.498;13.480;2022-08-30T10:34:16;20.50;99.90
14682;DHT22;7429;52.498;13.480;2022-08-30T10:37:31;20.90;99.90
14682;DHT22;7429;52.498;13.480;2022-08-30T10:40:41;21.10;99.90
14682;DHT22;7429;52.498;13.480;2022-08-30T10:44:17;21.20;99.90
14682;DHT22;7429;52.498;13.480;2022-08-30T10:47:28;21.60;99.90
14682;DHT22;7429;52.498;13.480;2022-08-30T10:50:40;21.70;99.90
14682;DHT22;7429;52.498;13.480;2022-08-30T10:53:48;21.70;99.90
14682;DHT22;7429;52.498;13.480;2022-08-30T10:56:54;21.80;99.90
14682;DHT22;7429;52.498;13.480;2022-08-30T11:00:03;21.80;99.90
14682;DHT22;7429;52.498;13.480;2022-08-30T11:03:30;21.80;99.90
14682;DHT22;7429;52.498;13.480;2022-08-30T11:06:49;21.70;99.90
14682;DHT22;7429;52.498;13.480;2022-08-30T11:10:06;21.80;99.90
14682;DHT22;7429;52.498;13.480;2022-08-30T11:13:21;21.90;99.90
14682;DHT22;7429;52.498;13.480;2022-08-30T11:16:36;21.90;99.90
14682;DHT22;7429;52.498;13.480;2022-08-30T11:19:40;22.00;99.90
14682;DHT22;7429;52.498;13.480;2022-08-30T11:23:11;22.00;99.90
14682;DHT22;7429;52.498;13.480;2022-08-30T11:26:52;22.00;99.90
14682;DHT22;7429;52.498;13.480;2022-08-30T11:33:53;22.20;99.90
14682;DHT22;7429;52.498;13.480;2022-08-30T11:37:02;22.30;99.90
14682;DHT22;7429;52.498;13.480;2022-08-30T11:40:47;22.50;99.90
14682;DHT22;7429;52.498;13.480;2022-08-30T11:43:52;22.90;99.90
14682;DHT22;7429;52.498;13.480;2022-08-30T11:47:35;23.30;99.90
14682;DHT22;7429;52.498;13.480;2022-08-30T11:50:49;23.50;99.90
14682;DHT22;7429;52.498;13.480;2022-08-30T11:54:02;23.70;99.90
14682;DHT22;7429;52.498;13.480;2022-08-30T11:57:18;23.90;99.90
14682;DHT22;7429;52.498;13.480;2022-08-30T12:00:29;23.90;99.90
14682;DHT22;7429;52.498;13.480;2022-08-30T12:03:35;23.70;99.90
14682;DHT22;7429;52.498;13.480;2022-08-30T12:06:47;23.70;99.90
14682;DHT22;7429;52.498;13.480;2022-08-30T12:09:58;24.00;99.90
14682;DHT22;7429;52.498;13.480;2022-08-30T12:13:03;24.00;99.90
14682;DHT22;7429;52.498;13.480;2022-08-30T12:16:08;23.90;99.90
14682;DHT22;7429;52.498;13.480;2022-08-30T12:19:18;23.60;99.90
14682;DHT22;7429;52.498;13.480;2022-08-30T12:22:23;23.40;99.90
14682;DHT22;7429;52.498;13.480;2022-08-30T12:25:30;23.20;99.90
14682;DHT22;7429;52.498;13.480;2022-08-30T12:28:36;23.10;99.90
14682;DHT22;7429;52.498;13.480;2022-08-30T12:31:46;23.00;99.90
14682;DHT22;7429;52.498;13.480;2022-08-30T12:34:52;23.20;99.90
14682;DHT22;7429;52.498;13.480;2022-08-30T12:38:00;23.20;99.90
14682;DHT22;7429;52.498;13.480;2022-08-30T12:41:07;23.40;99.90
14682;DHT22;7429;52.498;13.480;2022-08-30T12:44:14;23.70;99.90
14682;DHT22;7429;52.498;13.480;2022-08-30T12:47:21;23.80;99.90
14682;DHT22;7429;52.498;13.480;2022-08-30T12:50:28;23.90;99.90
14682;DHT22;7429;52.498;13.480;2022-08-30T12:53:36;24.10;99.90
14682;DHT22;7429;52.498;13.480;2022-08-30T12:56:58;24.40;99.90
14682;DHT22;7429;52.498;13.480;2022-08-30T13:00:26;24.60;99.90
14682;DHT22;7429;52.498;13.480;2022-08-30T13:03:33;25.10;99.90
14682;DHT22;7429;52.498;13.480;2022-08-30T13:06:41;25.60;99.90
14682;DHT22;7429;52.498;13.480;2022-08-30T13:09:47;25.90;99.90
14682;DHT22;7429;52.498;13.480;2022-08-30T13:12:59;26.00;99.90
14682;DHT22;7429;52.498;13.480;2022-08-30T13:16:09;26.20;99.90
14682;DHT22;7429;52.498;13.480;2022-08-30T13:19:23;26.10;99.90
14682;DHT22;7429;52.498;13.480;2022-08-30T13:22:32;26.10;99.90
14682;DHT22;7429;52.498;13.480;2022-08-30T13:25:38;26.50;99.90
14682;DHT22;7429;52.498;13.480;2022-08-30T13:28:44;26.80;99.90
14682;DHT22;7429;52.498;13.480;2022-08-30T13:31:49;26.50;99.90
14682;DHT22;7429;52.498;13.480;2022-08-30T13:34:52;26.40;99.90
14682;DHT22;7429;52.498;13.480;2022-08-30T13:37:56;25.80;99.90
14682;DHT22;7429;52.498;13.480;2022-08-30T13:41:03;25.30;99.90
14682;DHT22;7429;52.498;13.480;2022-08-30T13:44:06;24.70;99.90
14682;DHT22;7429;52.498;13.480;2022-08-30T13:47:14;24.60;99.90
14682;DHT22;7429;52.498;13.480;2022-08-30T13:50:35;24.50;99.90
14682;DHT22;7429;52.498;13.480;2022-08-30T13:53:40;24.20;99.90
14682;DHT22;7429;52.498;13.480;2022-08-30T13:57:00;24.20;99.90
14682;DHT22;7429;52.498;13.480;2022-08-30T14:00:07;23.90;99.90
14682;DHT22;7429;52.498;13.480;2022-08-30T14:03:15;23.60;99.90
14682;DHT22;7429;52.498;13.480;2022-08-30T14:06:19;23.70;99.90
14682;DHT22;7429;52.498;13.480;2022-08-30T14:09:35;23.70;99.90
14682;DHT22;7429;52.498;13.480;2022-08-30T14:12:39;23.40;99.90
14682;DHT22;7429;52.498;13.480;2022-08-30T14:16:04;23.20;99.90
14682;DHT22;7429;52.498;13.480;2022-08-30T14:19:29;22.90;99.90
14682;DHT22;7429;52.498;13.480;2022-08-30T14:22:32;22.60;99.90
14682;DHT22;7429;52.498;13.480;2022-08-30T14:25:35;22.50;99.90
14682;DHT22;7429;52.498;13.480;2022-08-30T14:28:39;22.40;99.90
14682;DHT22;7429;52.498;13.480;2022-08-30T14:31:43;22.20;99.90
14682;DHT22;7429;52.498;13.480;2022-08-30T14:34:47;22.20;99.90
14682;DHT22;7429;52.498;13.480;2022-08-30T14:37:51;22.00;99.90
14682;DHT22;7429;52.498;13.480;2022-08-30T14:40:54;22.00;99.90
14682;DHT22;7429;52.498;13.480;2022-08-30T14:44:04;21.90;99.90
14682;DHT22;7429;52.498;13.480;2022-08-30T14:47:07;21.80;99.90
14682;DHT22;7429;52.498;13.480;2022-08-30T14:50:11;21.70;99.90
14682;DHT22;7429;52.498;13.480;2022-08-30T14:53:14;21.60;99.90
14682;DHT22;7429;52.498;13.480;2022-08-30T14:56:19;21.60;99.90
14682;DHT22;7429;52.498;13.480;2022-08-30T14:59:27;21.60;99.90
14682;DHT22;7429;52.498;13.480;2022-08-30T15:02:30;21.60;99.90
14682;DHT22;7429;52.498;13.480;2022-08-30T15:05:33;21.60;99.90
14682;DHT22;7429;52.498;13.480;2022-08-30T15:08:37;21.50;99.90
14682;DHT22;7429;52.498;13.480;2022-08-30T15:11:40;21.50;99.90
14682;DHT22;7429;52.498;13.480;2022-08-30T15:14:49;21.50;99.90
14682;DHT22;7429;52.498;13.480;2022-08-30T15:17:52;21.50;99.90
14682;DHT22;7429;52.498;13.480;2022-08-30T15:20:55;21.60;99.90
14682;DHT22;7429;52.498;13.480;2022-08-30T15:23:59;21.60;99.90
14682;DHT22;7429;52.498;13.480;2022-08-30T15:27:03;21.50;99.90
14682;DHT22;7429;52.498;13.480;2022-08-30T15:30:10;21.50;99.90
14682;DHT22;7429;52.498;13.480;2022-08-30T15:33:16;21.60;99.90
14682;DHT22;7429;52.498;13.480;2022-08-30T15:36:19;21.70;99.90
14682;DHT22;7429;52.498;13.480;2022-08-30T15:39:22;21.70;99.90
14682;DHT22;7429;52.498;13.480;2022-08-30T15:42:26;21.60;99.90
14682;DHT22;7429;52.498;13.480;2022-08-30T15:45:30;21.50;99.90
14682;DHT22;7429;52.498;13.480;2022-08-30T15:48:33;21.40;99.90
14682;DHT22;7429;52.498;13.480;2022-08-30T15:51:43;21.40;99.90
14682;DHT22;7429;52.498;13.480;2022-08-30T15:54:47;21.40;99.90
14682;DHT22;7429;52.498;13.480;2022-08-30T15:57:50;21.40;99.90
14682;DHT22;7429;52.498;13.480;2022-08-30T16:00:55;21.40;99.90
14682;DHT22;7429;52.498;13.480;2022-08-30T16:03:58;21.40;99.90
14682;DHT22;7429;52.498;13.480;2022-08-30T16:07:02;21.30;99.90
14682;DHT22;7429;52.498;13.480;2022-08-30T16:10:06;21.30;99.90
14682;DHT22;7429;52.498;13.480;2022-08-30T16:13:10;21.40;99.90
14682;DHT22;7429;52.498;13.480;2022-08-30T16:16:15;21.40;99.90
14682;DHT22;7429;52.498;13.480;2022-08-30T16:19:18;21.40;99.90
14682;DHT22;7429;52.498;13.480;2022-08-30T16:22:21;21.40;99.90
14682;DHT22;7429;52.498;13.480;2022-08-30T16:25:26;21.40;99.90
14682;DHT22;7429;52.498;13.480;2022-08-30T16:28:42;21.30;99.90
14682;DHT22;7429;52.498;13.480;2022-08-30T16:31:47;21.30;99.90
14682;DHT22;7429;52.498;13.480;2022-08-30T16:34:51;21.40;99.90
14682;DHT22;7429;52.498;13.480;2022-08-30T16:37:54;21.30;99.90
14682;DHT22;7429;52.498;13.480;2022-08-30T16:40:57;21.30;99.90
14682;DHT22;7429;52.498;13.480;2022-08-30T16:44:03;21.30;99.90
14682;DHT22;7429;52.498;13.480;2022-08-30T16:47:08;21.30;99.90
14682;DHT22;7429;52.498;13.480;2022-08-30T16:50:15;21.20;99.90
14682;DHT22;7429;52.498;13.480;2022-08-30T16:53:19;21.10;99.90
14682;DHT22;7429;52.498;13.480;2022-08-30T16:56:24;21.10;99.90
14682;DHT22;7429;52.498;13.480;2022-08-30T16:59:28;21.00;99.90
14682;DHT22;7429;52.498;13.480;2022-08-30T17:02:33;21.00;99.90
14682;DHT22;7429;52.498;13.480;2022-08-30T17:05:37;21.00;99.90
14682;DHT22;7429;52.498;13.480;2022-08-30T17:08:45;20.90;99.90
14682;DHT22;7429;52.498;13.480;2022-08-30T17:11:56;20.90;99.90
14682;DHT22;7429;52.498;13.480;2022-08-30T17:15:00;20.90;99.90
14682;DHT22;7429;52.498;13.480;2022-08-30T17:18:07;20.80;99.90
14682;DHT22;7429;52.498;13.480;2022-08-30T17:21:10;20.70;99.90
14682;DHT22;7429;52.498;13.480;2022-08-30T17:24:14;20.70;99.90
14682;DHT22;7429;52.498;13.480;2022-08-30T17:27:17;20.60;99.90
14682;DHT22;7429;52.498;13.480;2022-08-30T17:30:22;20.50;99.90
14682;DHT22;7429;52.498;13.480;2022-08-30T17:33:26;20.50;99.90
14682;DHT22;7429;52.498;13.480;2022-08-30T17:36:30;20.50;99.90
14682;DHT22;7429;52.498;13.480;2022-08-30T17:39:36;20.50;99.90
14682;DHT22;7429;52.498;13.480;2022-08-30T17:42:40;20.40;99.90
14682;DHT22;7429;52.498;13.480;2022-08-30T17:45:44;20.50;99.90
14682;DHT22;7429;52.498;13.480;2022-08-30T17:48:49;20.40;99.90
14682;DHT22;7429;52.498;13.480;2022-08-30T17:52:02;20.40;99.90
14682;DHT22;7429;52.498;13.480;2022-08-30T17:55:07;20.30;99.90
14682;DHT22;7429;52.498;13.480;2022-08-30T17:58:11;20.20;99.90
14682;DHT22;7429;52.498;13.480;2022-08-30T18:01:16;20.20;99.90
14682;DHT22;7429;52.498;13.480;2022-08-30T18:04:23;20.20;99.90
14682;DHT22;7429;52.498;13.480;2022-08-30T18:07:27;20.20;99.90
14682;DHT22;7429;52.498;13.480;2022-08-30T18:10:31;20.10;99.90
14682;DHT22;7429;52.498;13.480;2022-08-30T18:13:36;20.00;99.90
14682;DHT22;7429;52.498;13.480;2022-08-30T18:16:40;20.00;99.90
14682;DHT22;7429;52.498;13.480;2022-08-30T18:19:56;19.90;99.90
14682;DHT22;7429;52.498;13.480;2022-08-30T18:22:59;19.90;99.90
14682;DHT22;7429;52.498;13.480;2022-08-30T18:26:02;19.80;99.90
14682;DHT22;7429;52.498;13.480;2022-08-30T18:29:05;19.80;99.90
14682;DHT22;7429;52.498;13.480;2022-08-30T18:32:09;19.80;99.90
14682;DHT22;7429;52.498;13.480;2022-08-30T18:35:14;19.70;99.90
14682;DHT22;7429;52.498;13.480;2022-08-30T18:38:17;19.70;99.90
14682;DHT22;7429;52.498;13.480;2022-08-30T18:41:25;19.60;99.90
14682;DHT22;7429;52.498;13.480;2022-08-30T18:44:30;19.50;99.90
14682;DHT22;7429;52.498;13.480;2022-08-30T18:47:34;19.50;99.90
14682;DHT22;7429;52.498;13.480;2022-08-30T18:50:41;19.40;99.90
14682;DHT22;7429;52.498;13.480;2022-08-30T18:53:47;19.30;99.90
14682;DHT22;7429;52.498;13.480;2022-08-30T18:56:50;19.30;99.90
14682;DHT22;7429;52.498;13.480;2022-08-30T18:59:55;19.30;99.90
14682;DHT22;7429;52.498;13.480;2022-08-30T19:02:58;19.20;99.90
14682;DHT22;7429;52.498;13.480;2022-08-30T19:06:04;19.20;99.90
14682;DHT22;7429;52.498;13.480;2022-08-30T19:09:10;19.10;99.90
14682;DHT22;7429;52.498;13.480;2022-08-30T19:12:13;19.00;99.90
14682;DHT22;7429;52.498;13.480;2022-08-30T19:15:17;19.00;99.90
14682;DHT22;7429;52.498;13.480;2022-08-30T19:18:20;19.00;99.90
14682;DHT22;7429;52.498;13.480;2022-08-30T19:21:26;18.90;99.90
14682;DHT22;7429;52.498;13.480;2022-08-30T19:24:29;18.90;99.90
14682;DHT22;7429;52.498;13.480;2022-08-30T19:27:34;18.80;99.90
14682;DHT22;7429;52.498;13.480;2022-08-30T19:30:39;18.80;99.90
14682;DHT22;7429;52.498;13.480;2022-08-30T19:33:44;18.70;99.90
14682;DHT22;7429;52.498;13.480;2022-08-30T19:36:49;18.80;99.90
14682;DHT22;7429;52.498;13.480;2022-08-30T19:39:53;18.70;99.90
14682;DHT22;7429;52.498;13.480;2022-08-30T19:43:01;18.60;99.90